Time;durP1;ratioP1;P1;durP2;ratioP2;P2;SDS_P1;SDS_P2;PMS_P1;PMS_P2;Temp;Humidity;BMP_temperature;BMP_pressure;BME280_temperature;BME280_humidity;BME280_pressure;Samples;Min_cycle;Max_cycle;Signal;HPM_P1;HPM_P2
2023/01/27 00:03:25;;;;;;;0.20;0.10;;;6.50;99.90;;;;;;21216942;27;20468;-70
2023/01/27 00:13:30;;;;;;;0.20;0.10;;;6.40;99.90;;;;;;21217171;27;20437;-69
2023/01/27 00:34:12;;;;;;;0.20;0.10;;;6.20;99.90;;;;;;21097819;27;20870;-70
2023/01/27 00:44:17;;;;;;;0.20;0.10;;;6.10;99.90;;;;;;21146637;28;20452;-70
2023/01/27 00:54:21;;;;;;;0.20;0.10;;;6.10;99.90;;;;;;21146579;28;20411;-69
2023/01/27 01:04:26;;;;;;;0.20;0.05;;;6.00;99.90;;;;;;21146373;28;20387;-70
2023/01/27 01:14:30;;;;;;;0.20;0.10;;;6.10;99.90;;;;;;21145689;28;20407;-70
2023/01/27 01:24:36;;;;;;;0.20;0.10;;;6.10;99.90;;;;;;21188208;28;20389;-70
2023/01/27 01:34:39;;;;;;;0.20;0.10;;;6.20;99.90;;;;;;21230477;28;20405;-70
2023/01/27 01:44:45;;;;;;;0.20;0.10;;;5.90;99.90;;;;;;21230869;28;20865;-70
2023/01/27 01:54:53;;;;;;;0.20;0.10;;;5.90;99.90;;;;;;21229138;28;20956;-71
2023/01/27 02:05:02;;;;;;;0.20;0.10;;;5.80;99.90;;;;;;21223908;28;20442;-70
2023/01/27 02:15:07;;;;;;;0.20;0.10;;;5.70;99.90;;;;;;21168806;27;20448;-72
2023/01/27 02:25:19;;;;;;;0.20;0.10;;;5.70;99.90;;;;;;21145005;27;20453;-68
2023/01/27 02:35:30;;;;;;;0.20;0.10;;;5.60;99.90;;;;;;21242963;27;20414;-72
2023/01/27 02:45:34;;;;;;;0.20;0.10;;;5.60;99.90;;;;;;21242024;27;20393;-69
2023/01/27 02:55:39;;;;;;;0.20;0.10;;;5.50;99.90;;;;;;21242226;27;20528;-71
2023/01/27 03:05:43;;;;;;;0.20;0.10;;;5.50;99.90;;;;;;21241867;27;20404;-71
2023/01/27 03:26:10;;;;;;;0.20;0.10;;;5.50;99.90;;;;;;21239493;27;20389;-70
2023/01/27 03:46:37;;;;;;;0.20;0.10;;;5.30;99.90;;;;;;21152848;28;20444;-69
2023/01/27 03:56:42;;;;;;;0.20;0.10;;;5.20;99.90;;;;;;21133539;28;20402;-70
2023/01/27 04:06:52;;;;;;;0.20;0.10;;;5.20;99.90;;;;;;21151802;28;20849;-70
2023/01/27 04:17:00;;;;;;;0.20;0.10;;;5.30;99.90;;;;;;21151039;28;20408;-69
2023/01/27 04:27:05;;;;;;;0.20;0.10;;;5.50;99.90;;;;;;21149860;28;20485;-69
2023/01/27 04:37:11;;;;;;;0.20;0.10;;;5.80;99.90;;;;;;21179225;27;20408;-70
2023/01/27 04:47:15;;;;;;;0.20;0.10;;;6.00;99.90;;;;;;21231823;27;20430;-70
2023/01/27 04:57:19;;;;;;;0.20;0.10;;;6.00;99.90;;;;;;21232727;27;20404;-70
2023/01/27 05:07:23;;;;;;;0.20;0.10;;;5.80;99.90;;;;;;21151570;27;20386;-70
2023/01/27 05:17:32;;;;;;;0.20;0.10;;;5.60;99.90;;;;;;21130334;28;20414;-72
2023/01/27 05:27:36;;;;;;;0.20;0.10;;;5.50;99.90;;;;;;21202426;28;20445;-68
2023/01/27 05:37:42;;;;;;;0.20;0.10;;;5.30;99.90;;;;;;21230381;28;20737;-70
2023/01/27 05:47:49;;;;;;;0.20;0.10;;;5.50;99.90;;;;;;21230433;27;20958;-69
2023/01/27 05:57:54;;;;;;;0.20;0.10;;;5.60;99.90;;;;;;21230215;27;20422;-69
2023/01/27 06:07:58;;;;;;;0.20;0.10;;;5.80;99.90;;;;;;21242707;27;20496;-70
2023/01/27 06:18:03;;;;;;;0.20;0.10;;;5.90;99.90;;;;;;21244126;27;20445;-70
2023/01/27 06:28:08;;;;;;;0.20;0.10;;;5.90;99.90;;;;;;21243399;27;20421;-72
2023/01/27 06:38:18;;;;;;;0.20;0.10;;;5.80;99.90;;;;;;21242464;27;20415;-71
2023/01/27 06:48:22;;;;;;;0.20;0.10;;;5.80;99.90;;;;;;21240435;27;20796;-72
2023/01/27 06:58:27;;;;;;;0.20;0.10;;;5.80;99.90;;;;;;21235663;27;20405;-73
2023/01/27 07:08:33;;;;;;;0.20;0.10;;;5.70;99.90;;;;;;21225759;27;20412;-71
2023/01/27 07:18:38;;;;;;;0.20;0.10;;;5.70;99.90;;;;;;21237789;27;20434;-70
2023/01/27 07:28:42;;;;;;;0.20;0.10;;;5.80;99.90;;;;;;21218339;27;20397;-70
2023/01/27 07:38:50;;;;;;;0.20;0.10;;;5.90;99.90;;;;;;21227996;27;20409;-72
2023/01/27 07:48:54;;;;;;;0.20;0.10;;;6.10;99.90;;;;;;21234980;27;20732;-71
2023/01/27 07:58:59;;;;;;;0.20;0.10;;;6.20;99.90;;;;;;21234321;27;20409;-70
2023/01/27 08:09:04;;;;;;;0.20;0.10;;;6.30;99.90;;;;;;21227273;27;20488;-70
2023/01/27 08:19:09;;;;;;;0.20;0.10;;;6.30;99.90;;;;;;21232562;27;20417;-69
2023/01/27 08:29:13;;;;;;;0.20;0.10;;;6.50;99.90;;;;;;21230241;27;20449;-70
2023/01/27 08:39:18;;;;;;;0.20;0.10;;;6.80;99.90;;;;;;21230181;27;20414;-70
2023/01/27 08:49:22;;;;;;;0.20;0.10;;;7.10;99.90;;;;;;21229593;27;20402;-70
2023/01/27 08:59:27;;;;;;;0.20;0.10;;;7.30;99.90;;;;;;21229827;27;20409;-71
2023/01/27 09:09:31;;;;;;;0.20;0.10;;;7.10;99.90;;;;;;21168557;27;20421;-71
2023/01/27 09:19:37;;;;;;;0.20;0.10;;;7.40;99.90;;;;;;21143102;28;20409;-69
2023/01/27 09:29:40;;;;;;;0.20;0.10;;;7.90;99.90;;;;;;21144106;28;20398;-70
2023/01/27 09:39:51;;;;;;;0.20;0.10;;;7.90;99.90;;;;;;21155713;28;20428;-71
2023/01/27 09:50:24;;;;;;;0.20;0.10;;;8.30;99.90;;;;;;21158273;28;20510;-71
2023/01/27 10:00:43;;;;;;;0.20;0.10;;;8.60;99.90;;;;;;21152839;28;20885;-70
2023/01/27 10:11:00;;;;;;;0.20;0.10;;;9.10;99.90;;;;;;21138865;28;20747;-72
2023/01/27 10:21:11;;;;;;;0.20;0.10;;;10.40;99.90;;;;;;21155678;28;20410;-67
2023/01/27 10:31:25;;;;;;;0.20;0.10;;;10.70;99.90;;;;;;21154962;28;20469;-69
2023/01/27 10:41:37;;;;;;;0.20;0.10;;;11.00;99.90;;;;;;21162388;27;20402;-70
2023/01/27 10:51:49;;;;;;;0.20;0.10;;;10.50;99.90;;;;;;21135645;28;20758;-67
2023/01/27 11:02:01;;;;;;;0.20;0.10;;;10.40;99.90;;;;;;21166341;27;20471;-70
2023/01/27 11:12:10;;;;;;;0.20;0.10;;;10.40;99.90;;;;;;21152435;28;20432;-69
2023/01/27 11:22:22;;;;;;;0.20;0.10;;;10.80;99.90;;;;;;21149823;28;20402;-69
2023/01/27 11:32:38;;;;;;;0.20;0.10;;;12.20;99.90;;;;;;21161547;27;20397;-67
2023/01/27 11:42:44;;;;;;;0.20;0.10;;;11.50;99.90;;;;;;21153684;27;20414;-69
2023/01/27 11:52:51;;;;;;;0.20;0.00;;;11.70;99.90;;;;;;21150232;28;20422;-68
2023/01/27 12:03:06;;;;;;;0.20;0.08;;;11.20;99.90;;;;;;21147681;28;20418;-71
2023/01/27 12:13:17;;;;;;;0.20;0.10;;;11.00;99.90;;;;;;21146011;28;20395;-69
2023/01/27 12:23:27;;;;;;;0.20;0.10;;;11.00;99.90;;;;;;21144674;28;20451;-69
2023/01/27 12:33:32;;;;;;;0.20;0.10;;;11.30;99.90;;;;;;21146193;28;20398;-68
2023/01/27 12:43:51;;;;;;;0.20;0.10;;;12.70;99.90;;;;;;21126918;28;20521;-70
2023/01/27 12:54:15;;;;;;;0.20;0.10;;;12.90;99.90;;;;;;21143284;28;20432;-69
2023/01/27 13:04:25;;;;;;;0.20;0.10;;;13.70;99.90;;;;;;21200892;27;20492;-67
2023/01/27 13:14:32;;;;;;;0.20;0.10;;;13.50;99.90;;;;;;21226057;27;20424;-70
2023/01/27 13:24:42;;;;;;;0.20;0.10;;;13.70;99.90;;;;;;21227132;27;20488;-71
2023/01/27 13:34:50;;;;;;;0.20;0.10;;;13.20;99.90;;;;;;21213015;28;20394;-71
2023/01/27 13:45:02;;;;;;;0.20;0.10;;;13.00;99.90;;;;;;21120476;28;20904;-70
2023/01/27 13:55:12;;;;;;;0.20;0.10;;;12.00;99.90;;;;;;21154682;28;20401;-66
2023/01/27 14:05:29;;;;;;;0.20;0.10;;;11.80;99.90;;;;;;21225708;27;20389;-70
2023/01/27 14:15:40;;;;;;;0.20;0.10;;;12.80;99.90;;;;;;21226116;28;20411;-71
2023/01/27 14:25:54;;;;;;;0.20;0.10;;;13.90;99.90;;;;;;21233073;27;20569;-69
2023/01/27 14:36:09;;;;;;;0.20;0.10;;;14.70;99.90;;;;;;21211874;27;20418;-72
2023/01/27 14:46:27;;;;;;;0.20;0.10;;;13.20;99.90;;;;;;21151051;28;20874;-70
2023/01/27 14:56:41;;;;;;;0.20;0.10;;;12.60;99.90;;;;;;21147967;28;20803;-69
2023/01/27 15:06:49;;;;;;;0.20;0.10;;;12.00;99.90;;;;;;21147908;28;20422;-69
2023/01/27 15:17:13;;;;;;;0.20;0.10;;;11.70;99.90;;;;;;21147899;28;20407;-69
2023/01/27 15:27:19;;;;;;;0.20;0.10;;;11.70;99.90;;;;;;21147930;28;20387;-70
2023/01/27 15:37:25;;;;;;;0.20;0.10;;;12.60;99.90;;;;;;21146887;28;20510;-69
2023/01/27 15:47:32;;;;;;;0.20;0.10;;;12.70;99.90;;;;;;21145502;28;20410;-68
2023/01/27 15:57:39;;;;;;;0.20;0.10;;;12.60;99.90;;;;;;21209881;27;20831;-69
2023/01/27 16:07:50;;;;;;;0.20;0.10;;;11.60;99.90;;;;;;21209752;27;20393;-70
2023/01/27 16:18:00;;;;;;;0.20;0.10;;;11.40;99.90;;;;;;21224075;27;20397;-67
2023/01/27 16:28:13;;;;;;;0.20;0.10;;;10.90;99.90;;;;;;21250881;27;20412;-69
2023/01/27 16:38:24;;;;;;;0.20;0.00;;;10.70;99.90;;;;;;21253230;27;20452;-69
2023/01/27 16:48:36;;;;;;;0.20;0.03;;;10.60;99.90;;;;;;21249791;27;20487;-72
2023/01/27 16:58:40;;;;;;;0.20;0.10;;;10.60;99.90;;;;;;21277340;27;20410;-68
2023/01/27 17:08:51;;;;;;;0.20;0.03;;;10.40;99.90;;;;;;21217782;27;20697;-70
2023/01/27 17:19:01;;;;;;;0.20;0.10;;;10.30;99.90;;;;;;21202564;27;20776;-71
2023/01/27 17:29:06;;;;;;;0.20;0.10;;;10.20;99.90;;;;;;21220798;28;20740;-72
2023/01/27 17:39:25;;;;;;;0.20;0.10;;;10.20;99.90;;;;;;21215727;28;20880;-72
2023/01/27 17:49:31;;;;;;;0.20;0.10;;;10.10;99.90;;;;;;21217904;27;20540;-69
2023/01/27 17:59:39;;;;;;;0.20;0.10;;;10.30;99.90;;;;;;21205633;27;20416;-71
2023/01/27 18:09:51;;;;;;;0.20;0.10;;;10.20;99.90;;;;;;21244475;27;20385;-73
2023/01/27 18:19:56;;;;;;;0.20;0.10;;;9.50;99.90;;;;;;21258392;27;20408;-71
2023/01/27 18:30:07;;;;;;;0.20;0.10;;;9.20;99.90;;;;;;21272307;27;20393;-73
2023/01/27 18:40:26;;;;;;;1.50;1.50;;;9.00;99.90;;;;;;21243140;27;20412;-71
2023/01/27 18:50:31;;;;;;;0.20;0.10;;;8.70;99.90;;;;;;21261876;27;20424;-69
2023/01/27 19:00:40;;;;;;;0.20;0.10;;;8.50;99.90;;;;;;21260606;27;20403;-70
2023/01/27 19:10:47;;;;;;;0.20;0.10;;;8.10;99.90;;;;;;21249437;27;20385;-70
2023/01/27 19:20:51;;;;;;;0.20;0.10;;;7.90;99.90;;;;;;21284918;27;20753;-69
2023/01/27 19:30:57;;;;;;;0.20;0.10;;;7.60;99.90;;;;;;21299431;27;20399;-71
2023/01/27 19:41:02;;;;;;;0.20;0.10;;;7.30;99.90;;;;;;21229153;27;20755;-71
2023/01/27 19:51:10;;;;;;;0.20;0.10;;;7.20;99.90;;;;;;21264164;27;20447;-70
2023/01/27 20:01:14;;;;;;;0.20;0.10;;;6.50;99.90;;;;;;21296922;27;20972;-71
2023/01/27 20:11:32;;;;;;;0.20;0.10;;;6.50;99.90;;;;;;21297151;27;20901;-72
2023/01/27 20:21:36;;;;;;;0.20;0.10;;;6.30;99.90;;;;;;21277783;27;20795;-70
2023/01/27 20:31:42;;;;;;;0.20;0.10;;;6.60;99.90;;;;;;21293477;27;20399;-69
2023/01/27 20:41:49;;;;;;;0.20;0.10;;;6.70;99.90;;;;;;21225383;27;20401;-70
2023/01/27 20:51:55;;;;;;;0.20;0.10;;;6.60;99.90;;;;;;21226422;27;20408;-70
2023/01/27 21:01:59;;;;;;;0.20;0.10;;;6.80;99.90;;;;;;21224964;27;20401;-72
2023/01/27 21:12:04;;;;;;;0.20;0.10;;;7.10;99.90;;;;;;21223446;27;20453;-71
2023/01/27 21:22:08;;;;;;;0.20;0.07;;;8.30;99.90;;;;;;21231320;27;20959;-70
2023/01/27 21:32:16;;;;;;;0.20;0.10;;;8.20;99.90;;;;;;21223185;27;20392;-73
2023/01/27 21:52:45;;;;;;;0.20;0.10;;;6.80;99.90;;;;;;21239254;27;21185;-71
2023/01/27 22:02:53;;;;;;;0.20;0.10;;;6.50;99.90;;;;;;21237685;27;20471;-69
2023/01/27 22:13:00;;;;;;;0.20;0.10;;;6.00;99.90;;;;;;21208177;27;20438;-70
2023/01/27 22:23:04;;;;;;;0.20;0.10;;;5.60;99.90;;;;;;21153088;28;20408;-71
2023/01/27 22:33:09;;;;;;;0.20;0.10;;;5.50;99.90;;;;;;21134482;27;21033;-71
2023/01/27 22:43:13;;;;;;;0.20;0.10;;;5.40;99.90;;;;;;21151190;28;20406;-73
2023/01/27 22:53:19;;;;;;;0.20;0.10;;;5.30;99.90;;;;;;21155752;28;20395;-70
2023/01/27 23:03:23;;;;;;;0.20;0.00;;;5.00;99.90;;;;;;21155352;28;20464;-70
2023/01/27 23:13:29;;;;;;;0.20;0.10;;;4.90;99.90;;;;;;21154497;28;20457;-70
2023/01/27 23:23:33;;;;;;;0.20;0.10;;;4.80;99.90;;;;;;21153524;28;20755;-71
2023/01/27 23:33:40;;;;;;;0.20;0.10;;;4.70;99.90;;;;;;21170386;27;20451;-71
2023/01/27 23:43:44;;;;;;;0.20;0.10;;;4.80;99.90;;;;;;21236669;27;21132;-70
2023/01/27 23:53:50;;;;;;;0.20;0.10;;;4.50;99.90;;;;;;21236205;27;20393;-72
